sensor_id;sensor_type;location;lat;lon;timestamp;pressure;altitude;pressure_sealevel;temperature;humidity
61786;BME280;47692;53.714;11.372;2022-08-19T00:00:36;100551.06;;;19.86;100.00
61786;BME280;47692;53.714;11.372;2022-08-19T00:03:03;100540.84;;;19.80;100.00
61786;BME280;47692;53.714;11.372;2022-08-19T00:05:28;100536.03;;;19.72;100.00
61786;BME280;47692;53.714;11.372;2022-08-19T00:07:53;100532.84;;;19.67;100.00
61786;BME280;47692;53.714;11.372;2022-08-19T00:10:20;100523.09;;;19.67;100.00
61786;BME280;47692;53.714;11.372;2022-08-19T00:12:46;100522.91;;;19.70;100.00
61786;BME280;47692;53.714;11.372;2022-08-19T00:15:14;100496.44;;;19.56;100.00
61786;BME280;47692;53.714;11.372;2022-08-19T00:17:43;100500.97;;;19.54;100.00
61786;BME280;47692;53.714;11.372;2022-08-19T00:20:12;100498.53;;;19.51;100.00
61786;BME280;47692;53.714;11.372;2022-08-19T00:22:42;100493.44;;;19.48;100.00
61786;BME280;47692;53.714;11.372;2022-08-19T00:25:07;100487.47;;;19.44;100.00
61786;BME280;47692;53.714;11.372;2022-08-19T00:27:33;100497.00;;;19.47;100.00
61786;BME280;47692;53.714;11.372;2022-08-19T00:29:59;100508.38;;;19.34;100.00
61786;BME280;47692;53.714;11.372;2022-08-19T00:32:25;100509.53;;;19.30;100.00
61786;BME280;47692;53.714;11.372;2022-08-19T00:34:51;100517.69;;;19.27;100.00
61786;BME280;47692;53.714;11.372;2022-08-19T00:37:18;100514.25;;;19.25;100.00
61786;BME280;47692;53.714;11.372;2022-08-19T00:39:44;100530.16;;;19.25;100.00
61786;BME280;47692;53.714;11.372;2022-08-19T00:42:10;100532.03;;;19.23;100.00
61786;BME280;47692;53.714;11.372;2022-08-19T00:44:35;100533.16;;;19.19;100.00
61786;BME280;47692;53.714;11.372;2022-08-19T00:47:00;100539.03;;;19.24;100.00
61786;BME280;47692;53.714;11.372;2022-08-19T00:49:36;100544.69;;;19.18;100.00
61786;BME280;47692;53.714;11.372;2022-08-19T00:52:15;100555.47;;;19.15;100.00
61786;BME280;47692;53.714;11.372;2022-08-19T00:54:42;100548.50;;;19.14;100.00
61786;BME280;47692;53.714;11.372;2022-08-19T00:57:10;100558.19;;;19.13;100.00
61786;BME280;47692;53.714;11.372;2022-08-19T00:59:41;100556.31;;;19.15;100.00
61786;BME280;47692;53.714;11.372;2022-08-19T01:02:08;100552.06;;;19.13;100.00
61786;BME280;47692;53.714;11.372;2022-08-19T01:04:33;100555.66;;;19.12;100.00
61786;BME280;47692;53.714;11.372;2022-08-19T01:06:59;100557.38;;;19.13;100.00
61786;BME280;47692;53.714;11.372;2022-08-19T01:09:25;100552.19;;;19.11;100.00
61786;BME280;47692;53.714;11.372;2022-08-19T01:11:51;100556.22;;;19.02;100.00
61786;BME280;47692;53.714;11.372;2022-08-19T01:14:17;100559.63;;;19.04;100.00
61786;BME280;47692;53.714;11.372;2022-08-19T01:16:45;100549.03;;;19.04;100.00
61786;BME280;47692;53.714;11.372;2022-08-19T01:19:24;100553.28;;;19.07;100.00
61786;BME280;47692;53.714;11.372;2022-08-19T01:24:37;100551.13;;;19.14;100.00
61786;BME280;47692;53.714;11.372;2022-08-19T01:27:06;100550.84;;;19.18;100.00
61786;BME280;47692;53.714;11.372;2022-08-19T01:29:31;100552.53;;;19.19;100.00
61786;BME280;47692;53.714;11.372;2022-08-19T01:31:57;100556.81;;;19.22;100.00
61786;BME280;47692;53.714;11.372;2022-08-19T01:34:24;100559.34;;;19.24;100.00
61786;BME280;47692;53.714;11.372;2022-08-19T01:36:49;100560.19;;;19.24;100.00
61786;BME280;47692;53.714;11.372;2022-08-19T01:39:21;100564.81;;;19.20;100.00
61786;BME280;47692;53.714;11.372;2022-08-19T01:41:47;100572.69;;;19.22;100.00
61786;BME280;47692;53.714;11.372;2022-08-19T01:44:13;100567.56;;;19.19;100.00
61786;BME280;47692;53.714;11.372;2022-08-19T01:46:38;100573.25;;;19.13;100.00
61786;BME280;47692;53.714;11.372;2022-08-19T01:49:05;100571.38;;;19.15;100.00
61786;BME280;47692;53.714;11.372;2022-08-19T01:51:30;100577.50;;;19.15;100.00
61786;BME280;47692;53.714;11.372;2022-08-19T01:53:56;100572.19;;;19.15;100.00
61786;BME280;47692;53.714;11.372;2022-08-19T01:56:22;100563.31;;;19.16;100.00
61786;BME280;47692;53.714;11.372;2022-08-19T01:58:58;100563.59;;;19.12;100.00
61786;BME280;47692;53.714;11.372;2022-08-19T02:01:24;100573.44;;;19.10;100.00
61786;BME280;47692;53.714;11.372;2022-08-19T02:03:49;100567.78;;;19.16;100.00
61786;BME280;47692;53.714;11.372;2022-08-19T02:06:16;100560.78;;;19.15;100.00
61786;BME280;47692;53.714;11.372;2022-08-19T02:08:42;100564.53;;;19.11;100.00
61786;BME280;47692;53.714;11.372;2022-08-19T02:11:19;100560.94;;;19.12;100.00
61786;BME280;47692;53.714;11.372;2022-08-19T02:13:45;100560.94;;;19.12;100.00
61786;BME280;47692;53.714;11.372;2022-08-19T02:16:10;100566.63;;;19.05;100.00
61786;BME280;47692;53.714;11.372;2022-08-19T02:18:36;100569.38;;;19.04;100.00
61786;BME280;47692;53.714;11.372;2022-08-19T02:21:01;100570.19;;;19.04;100.00
61786;BME280;47692;53.714;11.372;2022-08-19T02:23:26;100575.13;;;19.11;100.00
61786;BME280;47692;53.714;11.372;2022-08-19T02:25:52;100563.50;;;18.99;100.00
61786;BME280;47692;53.714;11.372;2022-08-19T02:28:17;100559.25;;;18.96;100.00
61786;BME280;47692;53.714;11.372;2022-08-19T02:30:43;100561.91;;;18.96;100.00
61786;BME280;47692;53.714;11.372;2022-08-19T02:33:08;100562.63;;;18.98;100.00
61786;BME280;47692;53.714;11.372;2022-08-19T02:35:33;100561.69;;;18.99;100.00
61786;BME280;47692;53.714;11.372;2022-08-19T02:37:59;100558.31;;;18.97;100.00
61786;BME280;47692;53.714;11.372;2022-08-19T02:40:51;100549.94;;;18.89;100.00
61786;BME280;47692;53.714;11.372;2022-08-19T02:43:18;100558.81;;;18.88;100.00
61786;BME280;47692;53.714;11.372;2022-08-19T02:45:45;100557.13;;;18.87;100.00
61786;BME280;47692;53.714;11.372;2022-08-19T02:48:11;100556.28;;;18.86;100.00
61786;BME280;47692;53.714;11.372;2022-08-19T02:50:38;100555.16;;;18.91;100.00
61786;BME280;47692;53.714;11.372;2022-08-19T02:53:04;100560.53;;;18.89;100.00
61786;BME280;47692;53.714;11.372;2022-08-19T02:55:29;100567.53;;;18.90;100.00
61786;BME280;47692;53.714;11.372;2022-08-19T02:57:54;100563.66;;;18.96;100.00
61786;BME280;47692;53.714;11.372;2022-08-19T03:00:20;100557.88;;;18.89;100.00
61786;BME280;47692;53.714;11.372;2022-08-19T03:02:45;100562.41;;;18.87;100.00
61786;BME280;47692;53.714;11.372;2022-08-19T03:05:12;100569.41;;;18.88;100.00
61786;BME280;47692;53.714;11.372;2022-08-19T03:07:37;100568.41;;;18.91;100.00
61786;BME280;47692;53.714;11.372;2022-08-19T03:10:03;100565.66;;;18.92;100.00
61786;BME280;47692;53.714;11.372;2022-08-19T03:12:29;100568.22;;;18.94;100.00
61786;BME280;47692;53.714;11.372;2022-08-19T03:14:54;100570.94;;;18.92;100.00
61786;BME280;47692;53.714;11.372;2022-08-19T03:17:20;100567.19;;;18.96;100.00
61786;BME280;47692;53.714;11.372;2022-08-19T03:19:45;100560.19;;;18.95;100.00
61786;BME280;47692;53.714;11.372;2022-08-19T03:22:10;100571.72;;;18.94;100.00
61786;BME280;47692;53.714;11.372;2022-08-19T03:24:37;100567.34;;;18.93;100.00
61786;BME280;47692;53.714;11.372;2022-08-19T03:27:03;100571.81;;;18.93;100.00
61786;BME280;47692;53.714;11.372;2022-08-19T03:29:31;100568.13;;;18.95;100.00
61786;BME280;47692;53.714;11.372;2022-08-19T03:32:02;100567.47;;;18.92;100.00
61786;BME280;47692;53.714;11.372;2022-08-19T03:34:30;100572.97;;;18.87;100.00
61786;BME280;47692;53.714;11.372;2022-08-19T03:36:58;100556.38;;;18.85;100.00
61786;BME280;47692;53.714;11.372;2022-08-19T03:39:26;100553.91;;;18.82;100.00
61786;BME280;47692;53.714;11.372;2022-08-19T03:41:52;100546.72;;;18.84;100.00
61786;BME280;47692;53.714;11.372;2022-08-19T03:44:22;100561.06;;;18.80;100.00
61786;BME280;47692;53.714;11.372;2022-08-19T03:46:51;100552.13;;;18.82;100.00
61786;BME280;47692;53.714;11.372;2022-08-19T03:49:17;100565.97;;;18.86;100.00
61786;BME280;47692;53.714;11.372;2022-08-19T03:51:44;100557.13;;;18.87;100.00
61786;BME280;47692;53.714;11.372;2022-08-19T03:54:12;100571.28;;;18.86;100.00
61786;BME280;47692;53.714;11.372;2022-08-19T03:56:40;100567.88;;;18.84;100.00
61786;BME280;47692;53.714;11.372;2022-08-19T03:59:08;100569.97;;;18.79;100.00
61786;BME280;47692;53.714;11.372;2022-08-19T04:01:34;100569.88;;;18.80;100.00
61786;BME280;47692;53.714;11.372;2022-08-19T04:04:00;100569.97;;;18.79;100.00
61786;BME280;47692;53.714;11.372;2022-08-19T04:06:28;100571.75;;;18.78;100.00
61786;BME280;47692;53.714;11.372;2022-08-19T04:08:56;100578.84;;;18.78;100.00
61786;BME280;47692;53.714;11.372;2022-08-19T04:11:26;100585.63;;;18.82;100.00
61786;BME280;47692;53.714;11.372;2022-08-19T04:13:53;100585.84;;;18.79;100.00
61786;BME280;47692;53.714;11.372;2022-08-19T04:16:20;100590.16;;;18.80;100.00
61786;BME280;47692;53.714;11.372;2022-08-19T04:18:47;100585.84;;;18.79;100.00
61786;BME280;47692;53.714;11.372;2022-08-19T04:21:19;100584.28;;;18.74;100.00
61786;BME280;47692;53.714;11.372;2022-08-19T04:23:45;100581.06;;;18.69;100.00
61786;BME280;47692;53.714;11.372;2022-08-19T04:26:16;100575.09;;;18.66;100.00
61786;BME280;47692;53.714;11.372;2022-08-19T04:28:43;100571.63;;;18.65;100.00
61786;BME280;47692;53.714;11.372;2022-08-19T04:31:13;100579.72;;;18.62;100.00
61786;BME280;47692;53.714;11.372;2022-08-19T04:33:39;100572.75;;;18.61;100.00
61786;BME280;47692;53.714;11.372;2022-08-19T04:36:05;100575.56;;;18.58;100.00
61786;BME280;47692;53.714;11.372;2022-08-19T04:38:30;100575.16;;;18.50;100.00
61786;BME280;47692;53.714;11.372;2022-08-19T04:40:56;100573.28;;;18.52;100.00
61786;BME280;47692;53.714;11.372;2022-08-19T04:43:40;100569.50;;;18.56;100.00
61786;BME280;47692;53.714;11.372;2022-08-19T04:46:07;100569.16;;;18.62;100.00
61786;BME280;47692;53.714;11.372;2022-08-19T04:48:34;100574.78;;;18.56;100.00
61786;BME280;47692;53.714;11.372;2022-08-19T04:50:59;100566.13;;;18.54;100.00
61786;BME280;47692;53.714;11.372;2022-08-19T04:53:29;100572.94;;;18.58;100.00
61786;BME280;47692;53.714;11.372;2022-08-19T04:55:56;100576.50;;;18.57;100.00
61786;BME280;47692;53.714;11.372;2022-08-19T04:58:23;100576.34;;;18.60;100.00
61786;BME280;47692;53.714;11.372;2022-08-19T05:00:49;100590.50;;;18.59;100.00
61786;BME280;47692;53.714;11.372;2022-08-19T05:03:14;100589.72;;;18.57;100.00
61786;BME280;47692;53.714;11.372;2022-08-19T05:05:43;100589.72;;;18.57;100.00
61786;BME280;47692;53.714;11.372;2022-08-19T05:08:09;100583.50;;;18.58;100.00
61786;BME280;47692;53.714;11.372;2022-08-19T05:10:36;100590.50;;;18.59;100.00
61786;BME280;47692;53.714;11.372;2022-08-19T05:13:03;100594.91;;;18.58;100.00
61786;BME280;47692;53.714;11.372;2022-08-19T05:15:28;100604.19;;;18.66;100.00
61786;BME280;47692;53.714;11.372;2022-08-19T05:17:54;100602.06;;;18.72;100.00
61786;BME280;47692;53.714;11.372;2022-08-19T05:20:38;100608.88;;;18.77;100.00
61786;BME280;47692;53.714;11.372;2022-08-19T05:23:22;100612.09;;;18.82;100.00
61786;BME280;47692;53.714;11.372;2022-08-19T05:25:48;100612.66;;;18.87;100.00
61786;BME280;47692;53.714;11.372;2022-08-19T05:28:13;100614.97;;;18.93;100.00
61786;BME280;47692;53.714;11.372;2022-08-19T05:30:38;100609.31;;;18.99;100.00
61786;BME280;47692;53.714;11.372;2022-08-19T05:33:06;100618.59;;;19.07;100.00
61786;BME280;47692;53.714;11.372;2022-08-19T05:35:36;100627.19;;;19.10;100.00
61786;BME280;47692;53.714;11.372;2022-08-19T05:38:01;100634.00;;;19.14;100.00
61786;BME280;47692;53.714;11.372;2022-08-19T05:40:26;100636.38;;;19.19;100.00
61786;BME280;47692;53.714;11.372;2022-08-19T05:42:52;100624.66;;;19.23;100.00
61786;BME280;47692;53.714;11.372;2022-08-19T05:45:18;100626.34;;;19.24;100.00
61786;BME280;47692;53.714;11.372;2022-08-19T05:47:43;100629.00;;;19.24;100.00
61786;BME280;47692;53.714;11.372;2022-08-19T05:50:10;100621.84;;;19.26;100.00
61786;BME280;47692;53.714;11.372;2022-08-19T05:52:37;100621.63;;;19.29;100.00
61786;BME280;47692;53.714;11.372;2022-08-19T05:55:03;100629.56;;;19.29;100.00
61786;BME280;47692;53.714;11.372;2022-08-19T05:57:29;100625.25;;;19.28;100.00
61786;BME280;47692;53.714;11.372;2022-08-19T05:59:55;100634.28;;;19.24;100.00
61786;BME280;47692;53.714;11.372;2022-08-19T06:02:22;100634.28;;;19.24;100.00
61786;BME280;47692;53.714;11.372;2022-08-19T06:04:47;100629.66;;;19.28;100.00
61786;BME280;47692;53.714;11.372;2022-08-19T06:07:13;100628.63;;;19.30;100.00
61786;BME280;47692;53.714;11.372;2022-08-19T06:09:39;100628.63;;;19.30;100.00
61786;BME280;47692;53.714;11.372;2022-08-19T06:12:05;100628.84;;;19.27;100.00
61786;BME280;47692;53.714;11.372;2022-08-19T06:14:33;100627.13;;;19.26;100.00
61786;BME280;47692;53.714;11.372;2022-08-19T06:16:59;100630.03;;;19.21;100.00
61786;BME280;47692;53.714;11.372;2022-08-19T06:19:27;100622.00;;;19.23;100.00
61786;BME280;47692;53.714;11.372;2022-08-19T06:21:55;100627.13;;;19.26;100.00
61786;BME280;47692;53.714;11.372;2022-08-19T06:24:26;100619.94;;;19.28;100.00
61786;BME280;47692;53.714;11.372;2022-08-19T06:26:53;100616.16;;;19.32;100.00
61786;BME280;47692;53.714;11.372;2022-08-19T06:29:22;100621.63;;;19.29;100.00
61786;BME280;47692;53.714;11.372;2022-08-19T06:31:51;100625.25;;;19.28;100.00
61786;BME280;47692;53.714;11.372;2022-08-19T06:34:17;100621.72;;;19.28;100.00
61786;BME280;47692;53.714;11.372;2022-08-19T06:36:46;100629.50;;;19.31;100.00
61786;BME280;47692;53.714;11.372;2022-08-19T06:39:36;100624.84;;;19.34;100.00
61786;BME280;47692;53.714;11.372;2022-08-19T06:42:00;100627.50;;;19.34;100.00
61786;BME280;47692;53.714;11.372;2022-08-19T06:44:27;100628.16;;;19.38;100.00
61786;BME280;47692;53.714;11.372;2022-08-19T06:46:54;100621.91;;;19.39;100.00
61786;BME280;47692;53.714;11.372;2022-08-19T06:49:20;100613.88;;;19.41;100.00
61786;BME280;47692;53.714;11.372;2022-08-19T06:51:47;100612.19;;;19.40;100.00
61786;BME280;47692;53.714;11.372;2022-08-19T06:54:14;100609.34;;;19.43;100.00
61786;BME280;47692;53.714;11.372;2022-08-19T06:56:40;100616.34;;;19.44;100.00
61786;BME280;47692;53.714;11.372;2022-08-19T06:59:11;100618.78;;;19.47;100.00
61786;BME280;47692;53.714;11.372;2022-08-19T07:01:40;100610.78;;;19.48;100.00
61786;BME280;47692;53.714;11.372;2022-08-19T07:04:07;100613.31;;;19.50;100.00
61786;BME280;47692;53.714;11.372;2022-08-19T07:06:34;100613.44;;;19.48;100.00
61786;BME280;47692;53.714;11.372;2022-08-19T07:08:59;100611.63;;;19.49;100.00
61786;BME280;47692;53.714;11.372;2022-08-19T07:11:25;100618.53;;;19.51;100.00
61786;BME280;47692;53.714;11.372;2022-08-19T07:13:50;100618.41;;;19.53;100.00
61786;BME280;47692;53.714;11.372;2022-08-19T07:16:17;100616.75;;;19.52;100.00
61786;BME280;47692;53.714;11.372;2022-08-19T07:18:45;100603.19;;;19.57;100.00
61786;BME280;47692;53.714;11.372;2022-08-19T07:21:15;100607.66;;;19.56;100.00
61786;BME280;47692;53.714;11.372;2022-08-19T07:23:42;100609.34;;;19.57;100.00
61786;BME280;47692;53.714;11.372;2022-08-19T07:26:11;100601.59;;;19.54;100.00
61786;BME280;47692;53.714;11.372;2022-08-19T07:28:37;100591.94;;;19.53;100.00
61786;BME280;47692;53.714;11.372;2022-08-19T07:31:06;100598.38;;;19.63;100.00
61786;BME280;47692;53.714;11.372;2022-08-19T07:33:33;100608.22;;;19.61;100.00
61786;BME280;47692;53.714;11.372;2022-08-19T07:36:05;100616.59;;;19.68;100.00
61786;BME280;47692;53.714;11.372;2022-08-19T07:38:31;100612.06;;;19.70;100.00
61786;BME280;47692;53.714;11.372;2022-08-19T07:40:57;100619.84;;;19.73;100.00
61786;BME280;47692;53.714;11.372;2022-08-19T07:43:22;100623.88;;;19.79;100.00
61786;BME280;47692;53.714;11.372;2022-08-19T07:45:50;100630.13;;;19.78;100.00
61786;BME280;47692;53.714;11.372;2022-08-19T07:48:16;100632.78;;;19.78;100.00
61786;BME280;47692;53.714;11.372;2022-08-19T07:50:41;100633.28;;;19.84;100.00
61786;BME280;47692;53.714;11.372;2022-08-19T07:53:07;100637.72;;;19.84;100.00
61786;BME280;47692;53.714;11.372;2022-08-19T07:55:32;100626.94;;;19.87;100.00
61786;BME280;47692;53.714;11.372;2022-08-19T07:57:59;100638.09;;;19.92;100.00
61786;BME280;47692;53.714;11.372;2022-08-19T08:00:25;100636.94;;;19.96;100.00
61786;BME280;47692;53.714;11.372;2022-08-19T08:02:52;100640.09;;;19.89;100.00
61786;BME280;47692;53.714;11.372;2022-08-19T08:05:17;100646.22;;;19.89;100.00
61786;BME280;47692;53.714;11.372;2022-08-19T08:08:01;100644.88;;;19.96;100.00
61786;BME280;47692;53.714;11.372;2022-08-19T08:10:45;100644.81;;;19.98;100.00
61786;BME280;47692;53.714;11.372;2022-08-19T08:13:10;100651.53;;;19.89;100.00
61786;BME280;47692;53.714;11.372;2022-08-19T08:15:37;100650.56;;;19.90;100.00
61786;BME280;47692;53.714;11.372;2022-08-19T08:18:03;100652.50;;;19.88;100.00
61786;BME280;47692;53.714;11.372;2022-08-19T08:20:28;100643.88;;;19.84;100.00
61786;BME280;47692;53.714;11.372;2022-08-19T08:22:54;100645.72;;;19.82;100.00
61786;BME280;47692;53.714;11.372;2022-08-19T08:25:37;100646.59;;;19.83;100.00
61786;BME280;47692;53.714;11.372;2022-08-19T08:28:04;100641.91;;;19.88;100.00
61786;BME280;47692;53.714;11.372;2022-08-19T08:30:30;100643.78;;;20.00;100.00
61786;BME280;47692;53.714;11.372;2022-08-19T08:32:58;100651.78;;;19.99;100.00
61786;BME280;47692;53.714;11.372;2022-08-19T08:35:24;100658.53;;;19.90;100.00
61786;BME280;47692;53.714;11.372;2022-08-19T08:37:52;100669.31;;;19.87;100.00
61786;BME280;47692;53.714;11.372;2022-08-19T08:40:44;100670.81;;;19.91;100.00
61786;BME280;47692;53.714;11.372;2022-08-19T08:43:29;100670.53;;;19.96;100.00
61786;BME280;47692;53.714;11.372;2022-08-19T08:46:03;100675.91;;;20.09;100.00
61786;BME280;47692;53.714;11.372;2022-08-19T08:51:04;100686.88;;;20.17;100.00
61786;BME280;47692;53.714;11.372;2022-08-19T08:53:31;100690.69;;;20.13;100.00
61786;BME280;47692;53.714;11.372;2022-08-19T08:56:02;100688.44;;;20.07;100.00
61786;BME280;47692;53.714;11.372;2022-08-19T08:58:42;100681.31;;;20.07;100.00
61786;BME280;47692;53.714;11.372;2022-08-19T09:01:11;100669.09;;;20.19;100.00
61786;BME280;47692;53.714;11.372;2022-08-19T09:03:39;100671.59;;;20.35;100.00
61786;BME280;47692;53.714;11.372;2022-08-19T09:06:26;100685.31;;;20.42;100.00
61786;BME280;47692;53.714;11.372;2022-08-19T09:09:09;100685.09;;;20.45;100.00
61786;BME280;47692;53.714;11.372;2022-08-19T09:16:35;100685.31;;;20.42;100.00
61786;BME280;47692;53.714;11.372;2022-08-19T09:19:04;100685.31;;;20.42;100.00
61786;BME280;47692;53.714;11.372;2022-08-19T09:21:31;100688.38;;;20.21;100.00
61786;BME280;47692;53.714;11.372;2022-08-19T09:23:57;100683.94;;;20.22;100.00
61786;BME280;47692;53.714;11.372;2022-08-19T09:26:24;100689.53;;;20.17;100.00
61786;BME280;47692;53.714;11.372;2022-08-19T09:28:51;100690.88;;;20.10;100.00
61786;BME280;47692;53.714;11.372;2022-08-19T09:31:23;100691.81;;;20.09;100.00
61786;BME280;47692;53.714;11.372;2022-08-19T09:33:49;100689.25;;;20.07;100.00
61786;BME280;47692;53.714;11.372;2022-08-19T09:36:16;100677.44;;;19.98;100.00
61786;BME280;47692;53.714;11.372;2022-08-19T09:38:43;100680.88;;;20.00;100.00
61786;BME280;47692;53.714;11.372;2022-08-19T09:41:15;100682.75;;;19.98;100.00
61786;BME280;47692;53.714;11.372;2022-08-19T09:43:42;100681.97;;;20.11;100.00
61786;BME280;47692;53.714;11.372;2022-08-19T09:46:10;100684.59;;;20.25;100.00
61786;BME280;47692;53.714;11.372;2022-08-19T09:48:37;100677.94;;;20.32;100.00
61786;BME280;47692;53.714;11.372;2022-08-19T09:51:05;100690.63;;;20.42;100.00
61786;BME280;47692;53.714;11.372;2022-08-19T09:53:31;100689.34;;;20.47;100.00
61786;BME280;47692;53.714;11.372;2022-08-19T09:55:57;100683.38;;;20.44;100.00
61786;BME280;47692;53.714;11.372;2022-08-19T09:58:22;100693.16;;;20.43;100.00
61786;BME280;47692;53.714;11.372;2022-08-19T10:00:56;100688.50;;;20.47;100.00
61786;BME280;47692;53.714;11.372;2022-08-19T10:03:22;100693.81;;;20.47;100.00
61786;BME280;47692;53.714;11.372;2022-08-19T10:05:47;100689.28;;;20.49;100.00
61786;BME280;47692;53.714;11.372;2022-08-19T10:08:14;100681.31;;;20.49;100.00
61786;BME280;47692;53.714;11.372;2022-08-19T10:10:43;100694.34;;;20.52;100.00
61786;BME280;47692;53.714;11.372;2022-08-19T10:13:09;100690.66;;;20.55;100.00
61786;BME280;47692;53.714;11.372;2022-08-19T10:15:35;100689.59;;;20.57;100.00
61786;BME280;47692;53.714;11.372;2022-08-19T10:18:00;100689.59;;;20.57;100.00
61786;BME280;47692;53.714;11.372;2022-08-19T10:20:26;100687.72;;;20.59;100.00
61786;BME280;47692;53.714;11.372;2022-08-19T10:22:51;100678.81;;;20.60;100.00
61786;BME280;47692;53.714;11.372;2022-08-19T10:25:16;100685.81;;;20.61;100.00
61786;BME280;47692;53.714;11.372;2022-08-19T10:27:42;100689.75;;;20.69;100.00
61786;BME280;47692;53.714;11.372;2022-08-19T10:30:08;100686.72;;;20.75;100.00
61786;BME280;47692;53.714;11.372;2022-08-19T10:32:34;100690.34;;;20.74;100.00
61786;BME280;47692;53.714;11.372;2022-08-19T10:35:00;100681.97;;;20.80;100.00
61786;BME280;47692;53.714;11.372;2022-08-19T10:37:25;100681.00;;;20.81;100.00
61786;BME280;47692;53.714;11.372;2022-08-19T10:39:51;100684.22;;;20.86;100.00
61786;BME280;47692;53.714;11.372;2022-08-19T10:42:16;100674.22;;;20.77;100.00
61786;BME280;47692;53.714;11.372;2022-08-19T10:44:44;100688.34;;;20.63;100.00
61786;BME280;47692;53.714;11.372;2022-08-19T10:47:10;100690.50;;;20.71;100.00
61786;BME280;47692;53.714;11.372;2022-08-19T10:49:35;100696.59;;;20.73;100.00
61786;BME280;47692;53.714;11.372;2022-08-19T10:52:21;100693.44;;;20.66;100.00
61786;BME280;47692;53.714;11.372;2022-08-19T10:54:59;100688.97;;;20.81;100.00
61786;BME280;47692;53.714;11.372;2022-08-19T10:57:43;100688.78;;;20.84;100.00
61786;BME280;47692;53.714;11.372;2022-08-19T11:00:09;100691.06;;;20.76;100.00
61786;BME280;47692;53.714;11.372;2022-08-19T11:02:35;100692.03;;;20.75;100.00
61786;BME280;47692;53.714;11.372;2022-08-19T11:05:00;100690.25;;;20.75;100.00
61786;BME280;47692;53.714;11.372;2022-08-19T11:07:26;100683.56;;;20.82;100.00
61786;BME280;47692;53.714;11.372;2022-08-19T11:09:51;100692.50;;;20.94;100.00
61786;BME280;47692;53.714;11.372;2022-08-19T11:12:16;100696.47;;;21.02;100.00
61786;BME280;47692;53.714;11.372;2022-08-19T11:14:42;100696.69;;;21.11;100.00
61786;BME280;47692;53.714;11.372;2022-08-19T11:17:07;100693.81;;;21.14;100.00
61786;BME280;47692;53.714;11.372;2022-08-19T11:19:33;100691.56;;;20.95;100.00
61786;BME280;47692;53.714;11.372;2022-08-19T11:21:59;100689.97;;;20.93;100.00
61786;BME280;47692;53.714;11.372;2022-08-19T11:24:26;100687.66;;;21.01;100.00
61786;BME280;47692;53.714;11.372;2022-08-19T11:26:54;100690.81;;;20.93;100.00
61786;BME280;47692;53.714;11.372;2022-08-19T11:29:24;100692.72;;;20.91;100.00
61786;BME280;47692;53.714;11.372;2022-08-19T11:31:51;100688.16;;;20.93;100.00
61786;BME280;47692;53.714;11.372;2022-08-19T11:34:22;100688.66;;;20.86;100.00
61786;BME280;47692;53.714;11.372;2022-08-19T11:36:49;100685.94;;;21.00;100.00
61786;BME280;47692;53.714;11.372;2022-08-19T11:39:18;100680.00;;;21.09;100.00
61786;BME280;47692;53.714;11.372;2022-08-19T11:41:44;100678.94;;;21.12;100.00
61786;BME280;47692;53.714;11.372;2022-08-19T11:44:10;100676.41;;;21.23;100.00
61786;BME280;47692;53.714;11.372;2022-08-19T11:46:37;100675.34;;;21.13;100.00
61786;BME280;47692;53.714;11.372;2022-08-19T11:49:04;100676.53;;;21.22;100.00
61786;BME280;47692;53.714;11.372;2022-08-19T11:51:30;100677.88;;;21.14;100.00
61786;BME280;47692;53.714;11.372;2022-08-19T11:53:58;100678.53;;;21.05;100.00
61786;BME280;47692;53.714;11.372;2022-08-19T11:56:24;100678.81;;;21.01;100.00
61786;BME280;47692;53.714;11.372;2022-08-19T11:58:51;100681.81;;;21.09;100.00
61786;BME280;47692;53.714;11.372;2022-08-19T12:01:19;100681.53;;;21.13;100.00
61786;BME280;47692;53.714;11.372;2022-08-19T12:03:46;100682.13;;;21.17;100.00
61786;BME280;47692;53.714;11.372;2022-08-19T12:06:15;100681.72;;;21.23;100.00
61786;BME280;47692;53.714;11.372;2022-08-19T12:08:41;100683.84;;;21.18;100.00
61786;BME280;47692;53.714;11.372;2022-08-19T12:11:08;100677.28;;;21.24;100.00
61786;BME280;47692;53.714;11.372;2022-08-19T12:13:35;100684.78;;;21.17;100.00
61786;BME280;47692;53.714;11.372;2022-08-19T12:16:10;100679.81;;;21.12;100.00
61786;BME280;47692;53.714;11.372;2022-08-19T12:18:37;100678.94;;;21.12;100.00
61786;BME280;47692;53.714;11.372;2022-08-19T12:21:02;100674.16;;;21.17;100.00
61786;BME280;47692;53.714;11.372;2022-08-19T12:23:28;100674.50;;;21.25;100.00
61786;BME280;47692;53.714;11.372;2022-08-19T12:25:53;100667.69;;;21.47;100.00
61786;BME280;47692;53.714;11.372;2022-08-19T12:28:21;100669.44;;;21.61;100.00
61786;BME280;47692;53.714;11.372;2022-08-19T12:30:48;100659.38;;;21.90;100.00
61786;BME280;47692;53.714;11.372;2022-08-19T12:33:13;100655.91;;;22.14;100.00
61786;BME280;47692;53.714;11.372;2022-08-19T12:35:41;100665.97;;;22.35;100.00
61786;BME280;47692;53.714;11.372;2022-08-19T12:38:07;100660.34;;;22.39;100.00
61786;BME280;47692;53.714;11.372;2022-08-19T12:40:32;100654.28;;;22.62;100.00
61786;BME280;47692;53.714;11.372;2022-08-19T12:42:57;100660.63;;;22.83;100.00